sensor_id;sensor_type;location;lat;lon;timestamp;P1;durP1;ratioP1;P2;durP2;ratioP2
13560;SDS011;6852;51.686;5.314;2022-11-12T00:00:52;16.13;;;12.93;;
13560;SDS011;6852;51.686;5.314;2022-11-12T00:03:19;19.20;;;13.33;;
13560;SDS011;6852;51.686;5.314;2022-11-12T00:05:47;15.07;;;11.17;;
13560;SDS011;6852;51.686;5.314;2022-11-12T00:08:16;19.40;;;13.50;;
13560;SDS011;6852;51.686;5.314;2022-11-12T00:10:43;15.73;;;12.50;;
13560;SDS011;6852;51.686;5.314;2022-11-12T00:13:12;18.03;;;13.77;;
13560;SDS011;6852;51.686;5.314;2022-11-12T00:15:39;21.87;;;13.80;;
13560;SDS011;6852;51.686;5.314;2022-11-12T00:18:06;14.83;;;13.23;;
13560;SDS011;6852;51.686;5.314;2022-11-12T00:20:33;19.37;;;12.77;;
13560;SDS011;6852;51.686;5.314;2022-11-12T00:23:00;17.90;;;13.63;;
13560;SDS011;6852;51.686;5.314;2022-11-12T00:25:27;17.80;;;13.17;;
13560;SDS011;6852;51.686;5.314;2022-11-12T00:27:59;18.13;;;13.07;;
13560;SDS011;6852;51.686;5.314;2022-11-12T00:30:27;15.03;;;12.40;;
13560;SDS011;6852;51.686;5.314;2022-11-12T00:32:55;15.50;;;12.57;;
13560;SDS011;6852;51.686;5.314;2022-11-12T00:35:22;16.83;;;12.60;;
13560;SDS011;6852;51.686;5.314;2022-11-12T00:37:52;15.57;;;12.23;;
13560;SDS011;6852;51.686;5.314;2022-11-12T00:40:20;21.13;;;13.50;;
13560;SDS011;6852;51.686;5.314;2022-11-12T00:42:47;17.33;;;13.10;;
13560;SDS011;6852;51.686;5.314;2022-11-12T00:45:16;17.73;;;13.20;;
13560;SDS011;6852;51.686;5.314;2022-11-12T00:47:44;18.37;;;13.77;;
13560;SDS011;6852;51.686;5.314;2022-11-12T00:50:11;18.57;;;13.50;;
13560;SDS011;6852;51.686;5.314;2022-11-12T00:52:37;17.30;;;13.50;;
13560;SDS011;6852;51.686;5.314;2022-11-12T00:55:04;16.33;;;12.53;;
13560;SDS011;6852;51.686;5.314;2022-11-12T00:57:31;17.53;;;13.50;;
13560;SDS011;6852;51.686;5.314;2022-11-12T00:59:58;19.70;;;13.27;;
13560;SDS011;6852;51.686;5.314;2022-11-12T01:02:25;16.33;;;12.97;;
13560;SDS011;6852;51.686;5.314;2022-11-12T01:04:51;17.00;;;13.20;;
13560;SDS011;6852;51.686;5.314;2022-11-12T01:07:18;18.53;;;13.97;;
13560;SDS011;6852;51.686;5.314;2022-11-12T01:09:45;18.60;;;14.07;;
13560;SDS011;6852;51.686;5.314;2022-11-12T01:12:12;18.87;;;13.60;;
13560;SDS011;6852;51.686;5.314;2022-11-12T01:14:39;20.20;;;14.30;;
13560;SDS011;6852;51.686;5.314;2022-11-12T01:17:06;18.43;;;13.77;;
13560;SDS011;6852;51.686;5.314;2022-11-12T01:19:32;18.23;;;13.47;;
13560;SDS011;6852;51.686;5.314;2022-11-12T01:21:59;18.50;;;13.33;;
13560;SDS011;6852;51.686;5.314;2022-11-12T01:24:26;18.43;;;12.53;;
13560;SDS011;6852;51.686;5.314;2022-11-12T01:26:53;18.00;;;13.40;;
13560;SDS011;6852;51.686;5.314;2022-11-12T01:29:19;14.60;;;12.70;;
13560;SDS011;6852;51.686;5.314;2022-11-12T01:31:46;16.97;;;14.00;;
13560;SDS011;6852;51.686;5.314;2022-11-12T01:34:13;19.77;;;13.33;;
13560;SDS011;6852;51.686;5.314;2022-11-12T01:36:40;17.03;;;13.43;;
13560;SDS011;6852;51.686;5.314;2022-11-12T01:39:08;16.23;;;13.03;;
13560;SDS011;6852;51.686;5.314;2022-11-12T01:41:36;19.73;;;13.43;;
13560;SDS011;6852;51.686;5.314;2022-11-12T01:44:08;15.33;;;12.57;;
13560;SDS011;6852;51.686;5.314;2022-11-12T01:46:43;17.93;;;12.60;;
13560;SDS011;6852;51.686;5.314;2022-11-12T01:49:37;16.73;;;12.83;;
13560;SDS011;6852;51.686;5.314;2022-11-12T01:52:27;17.33;;;12.43;;
13560;SDS011;6852;51.686;5.314;2022-11-12T01:55:04;19.20;;;13.40;;
13560;SDS011;6852;51.686;5.314;2022-11-12T01:57:42;16.47;;;12.93;;
13560;SDS011;6852;51.686;5.314;2022-11-12T02:00:30;17.23;;;12.00;;
13560;SDS011;6852;51.686;5.314;2022-11-12T02:02:57;14.30;;;12.10;;
13560;SDS011;6852;51.686;5.314;2022-11-12T02:05:26;16.23;;;12.40;;
13560;SDS011;6852;51.686;5.314;2022-11-12T02:07:55;14.47;;;12.13;;
13560;SDS011;6852;51.686;5.314;2022-11-12T02:10:23;14.20;;;12.10;;
13560;SDS011;6852;51.686;5.314;2022-11-12T02:12:51;16.60;;;12.73;;
13560;SDS011;6852;51.686;5.314;2022-11-12T02:15:38;15.40;;;12.10;;
13560;SDS011;6852;51.686;5.314;2022-11-12T02:18:06;15.50;;;11.40;;
13560;SDS011;6852;51.686;5.314;2022-11-12T02:20:34;15.37;;;12.37;;
13560;SDS011;6852;51.686;5.314;2022-11-12T02:23:03;17.17;;;12.57;;
13560;SDS011;6852;51.686;5.314;2022-11-12T02:25:32;15.67;;;11.77;;
13560;SDS011;6852;51.686;5.314;2022-11-12T02:28:00;18.47;;;12.47;;
13560;SDS011;6852;51.686;5.314;2022-11-12T02:30:31;17.57;;;13.13;;
13560;SDS011;6852;51.686;5.314;2022-11-12T02:33:01;13.67;;;11.43;;
13560;SDS011;6852;51.686;5.314;2022-11-12T02:35:29;16.83;;;11.33;;
13560;SDS011;6852;51.686;5.314;2022-11-12T02:37:56;13.50;;;11.50;;
13560;SDS011;6852;51.686;5.314;2022-11-12T02:40:23;20.00;;;12.10;;
13560;SDS011;6852;51.686;5.314;2022-11-12T02:42:50;17.10;;;12.53;;
13560;SDS011;6852;51.686;5.314;2022-11-12T02:45:17;16.50;;;12.67;;
13560;SDS011;6852;51.686;5.314;2022-11-12T02:47:44;15.70;;;12.30;;
13560;SDS011;6852;51.686;5.314;2022-11-12T02:50:12;18.83;;;13.70;;
13560;SDS011;6852;51.686;5.314;2022-11-12T02:52:38;19.57;;;13.10;;
13560;SDS011;6852;51.686;5.314;2022-11-12T02:55:06;22.10;;;13.33;;
13560;SDS011;6852;51.686;5.314;2022-11-12T02:57:35;16.87;;;12.60;;
13560;SDS011;6852;51.686;5.314;2022-11-12T03:00:03;17.63;;;13.37;;
13560;SDS011;6852;51.686;5.314;2022-11-12T03:02:38;18.77;;;13.17;;
13560;SDS011;6852;51.686;5.314;2022-11-12T03:05:11;19.47;;;12.77;;
13560;SDS011;6852;51.686;5.314;2022-11-12T03:07:38;14.67;;;11.97;;
13560;SDS011;6852;51.686;5.314;2022-11-12T03:10:05;16.57;;;11.53;;
13560;SDS011;6852;51.686;5.314;2022-11-12T03:12:32;14.23;;;11.87;;
13560;SDS011;6852;51.686;5.314;2022-11-12T03:14:59;21.30;;;13.57;;
13560;SDS011;6852;51.686;5.314;2022-11-12T03:17:26;19.83;;;13.23;;
13560;SDS011;6852;51.686;5.314;2022-11-12T03:19:52;18.17;;;13.30;;
13560;SDS011;6852;51.686;5.314;2022-11-12T03:22:19;16.47;;;12.20;;
13560;SDS011;6852;51.686;5.314;2022-11-12T03:24:46;16.37;;;12.60;;
13560;SDS011;6852;51.686;5.314;2022-11-12T03:27:13;14.07;;;11.83;;
13560;SDS011;6852;51.686;5.314;2022-11-12T03:29:40;18.17;;;12.37;;
13560;SDS011;6852;51.686;5.314;2022-11-12T03:32:07;15.80;;;11.73;;
13560;SDS011;6852;51.686;5.314;2022-11-12T03:34:33;15.60;;;12.93;;
13560;SDS011;6852;51.686;5.314;2022-11-12T03:37:00;15.50;;;11.70;;
13560;SDS011;6852;51.686;5.314;2022-11-12T03:39:28;17.10;;;12.27;;
13560;SDS011;6852;51.686;5.314;2022-11-12T03:41:54;18.63;;;13.13;;
13560;SDS011;6852;51.686;5.314;2022-11-12T03:44:21;15.03;;;11.97;;
13560;SDS011;6852;51.686;5.314;2022-11-12T03:46:48;15.97;;;12.77;;
13560;SDS011;6852;51.686;5.314;2022-11-12T03:49:15;17.37;;;12.63;;
13560;SDS011;6852;51.686;5.314;2022-11-12T03:51:41;15.03;;;12.13;;
13560;SDS011;6852;51.686;5.314;2022-11-12T03:54:08;15.93;;;11.57;;
13560;SDS011;6852;51.686;5.314;2022-11-12T03:56:35;13.50;;;11.73;;
13560;SDS011;6852;51.686;5.314;2022-11-12T03:59:02;14.20;;;11.33;;
13560;SDS011;6852;51.686;5.314;2022-11-12T04:01:29;15.47;;;11.47;;
13560;SDS011;6852;51.686;5.314;2022-11-12T04:03:56;14.30;;;11.03;;
13560;SDS011;6852;51.686;5.314;2022-11-12T04:06:23;15.23;;;11.23;;
13560;SDS011;6852;51.686;5.314;2022-11-12T04:09:09;16.07;;;11.53;;
13560;SDS011;6852;51.686;5.314;2022-11-12T04:11:35;15.80;;;12.40;;
13560;SDS011;6852;51.686;5.314;2022-11-12T04:14:02;15.70;;;10.80;;
13560;SDS011;6852;51.686;5.314;2022-11-12T04:16:29;14.33;;;10.33;;
13560;SDS011;6852;51.686;5.314;2022-11-12T04:19:15;15.83;;;10.63;;
13560;SDS011;6852;51.686;5.314;2022-11-12T04:22:03;13.47;;;10.00;;
13560;SDS011;6852;51.686;5.314;2022-11-12T04:24:37;13.23;;;10.23;;
13560;SDS011;6852;51.686;5.314;2022-11-12T04:29:52;15.50;;;9.57;;
13560;SDS011;6852;51.686;5.314;2022-11-12T04:32:50;14.23;;;10.87;;
13560;SDS011;6852;51.686;5.314;2022-11-12T04:35:20;13.13;;;10.03;;
13560;SDS011;6852;51.686;5.314;2022-11-12T04:37:50;14.53;;;10.00;;
13560;SDS011;6852;51.686;5.314;2022-11-12T04:40:18;14.03;;;9.50;;
13560;SDS011;6852;51.686;5.314;2022-11-12T04:43:06;13.83;;;9.80;;
13560;SDS011;6852;51.686;5.314;2022-11-12T04:45:54;16.60;;;10.20;;
13560;SDS011;6852;51.686;5.314;2022-11-12T04:48:21;13.43;;;9.87;;
13560;SDS011;6852;51.686;5.314;2022-11-12T04:50:58;13.93;;;10.20;;
13560;SDS011;6852;51.686;5.314;2022-11-12T04:53:27;12.83;;;9.47;;
13560;SDS011;6852;51.686;5.314;2022-11-12T04:55:55;12.23;;;9.17;;
13560;SDS011;6852;51.686;5.314;2022-11-12T04:58:23;11.37;;;9.13;;
13560;SDS011;6852;51.686;5.314;2022-11-12T05:00:51;12.27;;;9.40;;
13560;SDS011;6852;51.686;5.314;2022-11-12T05:03:18;12.07;;;9.13;;
13560;SDS011;6852;51.686;5.314;2022-11-12T05:05:44;12.30;;;8.83;;
13560;SDS011;6852;51.686;5.314;2022-11-12T05:08:11;11.63;;;8.33;;
13560;SDS011;6852;51.686;5.314;2022-11-12T05:10:38;13.30;;;9.60;;
13560;SDS011;6852;51.686;5.314;2022-11-12T05:13:05;11.60;;;8.93;;
13560;SDS011;6852;51.686;5.314;2022-11-12T05:15:31;12.27;;;8.60;;
13560;SDS011;6852;51.686;5.314;2022-11-12T05:17:58;11.50;;;8.70;;
13560;SDS011;6852;51.686;5.314;2022-11-12T05:20:25;14.97;;;8.53;;
13560;SDS011;6852;51.686;5.314;2022-11-12T05:22:52;9.87;;;8.20;;
13560;SDS011;6852;51.686;5.314;2022-11-12T05:25:32;14.17;;;8.40;;
13560;SDS011;6852;51.686;5.314;2022-11-12T05:28:00;12.77;;;9.70;;
13560;SDS011;6852;51.686;5.314;2022-11-12T05:30:27;10.47;;;7.97;;
13560;SDS011;6852;51.686;5.314;2022-11-12T05:32:53;9.57;;;7.70;;
13560;SDS011;6852;51.686;5.314;2022-11-12T05:35:20;10.73;;;7.83;;
13560;SDS011;6852;51.686;5.314;2022-11-12T05:37:47;10.00;;;7.40;;
13560;SDS011;6852;51.686;5.314;2022-11-12T05:40:14;10.87;;;7.87;;
13560;SDS011;6852;51.686;5.314;2022-11-12T05:42:40;9.77;;;7.93;;
13560;SDS011;6852;51.686;5.314;2022-11-12T05:45:07;10.90;;;8.07;;
13560;SDS011;6852;51.686;5.314;2022-11-12T05:47:34;10.17;;;7.50;;
13560;SDS011;6852;51.686;5.314;2022-11-12T05:50:01;12.93;;;7.97;;
13560;SDS011;6852;51.686;5.314;2022-11-12T05:52:28;12.00;;;8.03;;
13560;SDS011;6852;51.686;5.314;2022-11-12T05:54:55;10.40;;;7.83;;
13560;SDS011;6852;51.686;5.314;2022-11-12T05:57:21;8.50;;;7.17;;
13560;SDS011;6852;51.686;5.314;2022-11-12T05:59:48;13.07;;;8.10;;
13560;SDS011;6852;51.686;5.314;2022-11-12T06:02:15;10.63;;;7.97;;
13560;SDS011;6852;51.686;5.314;2022-11-12T06:04:42;11.27;;;8.10;;
13560;SDS011;6852;51.686;5.314;2022-11-12T06:07:08;15.77;;;7.93;;
13560;SDS011;6852;51.686;5.314;2022-11-12T06:09:35;11.23;;;6.77;;
13560;SDS011;6852;51.686;5.314;2022-11-12T06:12:02;11.10;;;7.50;;
13560;SDS011;6852;51.686;5.314;2022-11-12T06:14:31;10.50;;;7.33;;
13560;SDS011;6852;51.686;5.314;2022-11-12T06:16:58;11.80;;;7.67;;
13560;SDS011;6852;51.686;5.314;2022-11-12T06:19:25;10.23;;;7.07;;
13560;SDS011;6852;51.686;5.314;2022-11-12T06:21:52;9.87;;;7.63;;
13560;SDS011;6852;51.686;5.314;2022-11-12T06:24:18;10.10;;;7.23;;
13560;SDS011;6852;51.686;5.314;2022-11-12T06:26:45;8.33;;;7.13;;
13560;SDS011;6852;51.686;5.314;2022-11-12T06:29:12;10.40;;;6.80;;
13560;SDS011;6852;51.686;5.314;2022-11-12T06:31:39;10.10;;;7.70;;
13560;SDS011;6852;51.686;5.314;2022-11-12T06:34:05;9.77;;;6.87;;
13560;SDS011;6852;51.686;5.314;2022-11-12T06:36:32;9.63;;;6.97;;
13560;SDS011;6852;51.686;5.314;2022-11-12T06:39:00;9.03;;;7.23;;
13560;SDS011;6852;51.686;5.314;2022-11-12T06:41:27;13.73;;;7.67;;
13560;SDS011;6852;51.686;5.314;2022-11-12T06:43:53;11.03;;;7.73;;
13560;SDS011;6852;51.686;5.314;2022-11-12T06:46:20;12.57;;;7.90;;
13560;SDS011;6852;51.686;5.314;2022-11-12T06:48:47;10.83;;;7.73;;
13560;SDS011;6852;51.686;5.314;2022-11-12T06:51:18;14.37;;;8.00;;
13560;SDS011;6852;51.686;5.314;2022-11-12T06:53:46;11.27;;;7.20;;
13560;SDS011;6852;51.686;5.314;2022-11-12T06:56:13;10.87;;;7.53;;
13560;SDS011;6852;51.686;5.314;2022-11-12T06:58:40;8.30;;;7.20;;
13560;SDS011;6852;51.686;5.314;2022-11-12T07:03:37;10.33;;;7.40;;
13560;SDS011;6852;51.686;5.314;2022-11-12T07:06:06;12.43;;;7.73;;
13560;SDS011;6852;51.686;5.314;2022-11-12T07:08:37;9.67;;;6.70;;
13560;SDS011;6852;51.686;5.314;2022-11-12T07:11:04;8.20;;;6.80;;
13560;SDS011;6852;51.686;5.314;2022-11-12T07:13:32;10.97;;;7.00;;
13560;SDS011;6852;51.686;5.314;2022-11-12T07:16:00;12.07;;;7.90;;
13560;SDS011;6852;51.686;5.314;2022-11-12T07:18:28;11.60;;;7.77;;
13560;SDS011;6852;51.686;5.314;2022-11-12T07:20:57;8.77;;;7.67;;
13560;SDS011;6852;51.686;5.314;2022-11-12T07:23:28;11.47;;;7.80;;
13560;SDS011;6852;51.686;5.314;2022-11-12T07:26:01;10.23;;;7.57;;
13560;SDS011;6852;51.686;5.314;2022-11-12T07:28:30;9.80;;;7.60;;
13560;SDS011;6852;51.686;5.314;2022-11-12T07:30:57;9.93;;;6.63;;
13560;SDS011;6852;51.686;5.314;2022-11-12T07:33:26;9.37;;;7.00;;
13560;SDS011;6852;51.686;5.314;2022-11-12T07:35:57;10.00;;;7.13;;
13560;SDS011;6852;51.686;5.314;2022-11-12T07:38:25;11.97;;;7.57;;
13560;SDS011;6852;51.686;5.314;2022-11-12T07:40:57;11.10;;;7.90;;
13560;SDS011;6852;51.686;5.314;2022-11-12T07:43:26;8.40;;;7.13;;
13560;SDS011;6852;51.686;5.314;2022-11-12T07:45:56;7.67;;;6.40;;
13560;SDS011;6852;51.686;5.314;2022-11-12T07:48:24;11.30;;;7.77;;
13560;SDS011;6852;51.686;5.314;2022-11-12T07:50:52;10.37;;;7.50;;
13560;SDS011;6852;51.686;5.314;2022-11-12T07:53:24;10.07;;;7.20;;
13560;SDS011;6852;51.686;5.314;2022-11-12T07:55:58;11.70;;;7.77;;
13560;SDS011;6852;51.686;5.314;2022-11-12T07:58:26;9.60;;;7.17;;
13560;SDS011;6852;51.686;5.314;2022-11-12T08:00:55;11.33;;;7.67;;
13560;SDS011;6852;51.686;5.314;2022-11-12T08:03:22;11.77;;;7.53;;
13560;SDS011;6852;51.686;5.314;2022-11-12T08:05:49;9.17;;;7.83;;
13560;SDS011;6852;51.686;5.314;2022-11-12T08:08:16;12.60;;;8.13;;
13560;SDS011;6852;51.686;5.314;2022-11-12T08:10:42;10.73;;;7.50;;
13560;SDS011;6852;51.686;5.314;2022-11-12T08:13:09;10.90;;;7.27;;
13560;SDS011;6852;51.686;5.314;2022-11-12T08:15:36;8.70;;;7.33;;
13560;SDS011;6852;51.686;5.314;2022-11-12T08:18:03;9.97;;;7.63;;
13560;SDS011;6852;51.686;5.314;2022-11-12T08:20:30;9.03;;;7.73;;
13560;SDS011;6852;51.686;5.314;2022-11-12T08:23:00;11.27;;;8.10;;
13560;SDS011;6852;51.686;5.314;2022-11-12T08:25:27;10.77;;;7.23;;
13560;SDS011;6852;51.686;5.314;2022-11-12T08:27:57;8.30;;;6.87;;
13560;SDS011;6852;51.686;5.314;2022-11-12T08:30:25;11.40;;;7.83;;
13560;SDS011;6852;51.686;5.314;2022-11-12T08:32:59;9.67;;;7.33;;
13560;SDS011;6852;51.686;5.314;2022-11-12T08:35:31;9.57;;;8.13;;
13560;SDS011;6852;51.686;5.314;2022-11-12T08:38:00;10.93;;;8.30;;
13560;SDS011;6852;51.686;5.314;2022-11-12T08:40:28;14.83;;;10.00;;
13560;SDS011;6852;51.686;5.314;2022-11-12T08:42:57;12.90;;;10.07;;
13560;SDS011;6852;51.686;5.314;2022-11-12T08:45:30;15.13;;;10.80;;
13560;SDS011;6852;51.686;5.314;2022-11-12T08:47:58;15.10;;;10.20;;
13560;SDS011;6852;51.686;5.314;2022-11-12T08:50:27;18.97;;;11.67;;
13560;SDS011;6852;51.686;5.314;2022-11-12T08:53:01;15.60;;;11.30;;
13560;SDS011;6852;51.686;5.314;2022-11-12T08:55:29;16.10;;;10.33;;
13560;SDS011;6852;51.686;5.314;2022-11-12T08:57:58;13.43;;;10.13;;
13560;SDS011;6852;51.686;5.314;2022-11-12T09:00:42;17.33;;;10.90;;
13560;SDS011;6852;51.686;5.314;2022-11-12T09:03:13;12.90;;;9.50;;
13560;SDS011;6852;51.686;5.314;2022-11-12T09:05:42;16.30;;;10.63;;
13560;SDS011;6852;51.686;5.314;2022-11-12T09:08:10;13.80;;;10.20;;
13560;SDS011;6852;51.686;5.314;2022-11-12T09:10:39;15.33;;;10.70;;
13560;SDS011;6852;51.686;5.314;2022-11-12T09:13:06;16.83;;;10.40;;
13560;SDS011;6852;51.686;5.314;2022-11-12T09:15:33;13.13;;;10.00;;
13560;SDS011;6852;51.686;5.314;2022-11-12T09:18:04;14.27;;;8.83;;
13560;SDS011;6852;51.686;5.314;2022-11-12T09:20:33;9.30;;;8.10;;
13560;SDS011;6852;51.686;5.314;2022-11-12T09:23:01;12.57;;;8.60;;
13560;SDS011;6852;51.686;5.314;2022-11-12T09:25:41;13.67;;;8.37;;
13560;SDS011;6852;51.686;5.314;2022-11-12T09:28:09;10.27;;;7.60;;
13560;SDS011;6852;51.686;5.314;2022-11-12T09:30:40;10.83;;;8.47;;
13560;SDS011;6852;51.686;5.314;2022-11-12T09:33:08;11.43;;;8.43;;
13560;SDS011;6852;51.686;5.314;2022-11-12T09:35:35;11.57;;;6.53;;
13560;SDS011;6852;51.686;5.314;2022-11-12T09:38:02;11.57;;;7.17;;
13560;SDS011;6852;51.686;5.314;2022-11-12T09:46:08;9.30;;;6.77;;
13560;SDS011;6852;51.686;5.314;2022-11-12T09:49:10;9.87;;;7.67;;
13560;SDS011;6852;51.686;5.314;2022-11-12T09:51:42;10.30;;;7.17;;
13560;SDS011;6852;51.686;5.314;2022-11-12T09:54:18;9.43;;;6.90;;
13560;SDS011;6852;51.686;5.314;2022-11-12T09:56:47;8.63;;;6.97;;
13560;SDS011;6852;51.686;5.314;2022-11-12T09:59:15;10.27;;;7.13;;
13560;SDS011;6852;51.686;5.314;2022-11-12T10:04:41;9.20;;;6.97;;
13560;SDS011;6852;51.686;5.314;2022-11-12T10:19:09;11.53;;;6.50;;
13560;SDS011;6852;51.686;5.314;2022-11-12T10:24:25;9.10;;;6.90;;
13560;SDS011;6852;51.686;5.314;2022-11-12T10:26:59;7.50;;;6.77;;
13560;SDS011;6852;51.686;5.314;2022-11-12T10:32:13;8.80;;;5.97;;
13560;SDS011;6852;51.686;5.314;2022-11-12T10:34:41;9.73;;;6.27;;
13560;SDS011;6852;51.686;5.314;2022-11-12T10:37:16;7.27;;;6.03;;
13560;SDS011;6852;51.686;5.314;2022-11-12T10:42:57;9.27;;;6.40;;
13560;SDS011;6852;51.686;5.314;2022-11-12T10:45:25;10.73;;;6.03;;
13560;SDS011;6852;51.686;5.314;2022-11-12T10:47:52;8.10;;;6.27;;
13560;SDS011;6852;51.686;5.314;2022-11-12T10:53:07;7.47;;;5.73;;
13560;SDS011;6852;51.686;5.314;2022-11-12T10:55:37;7.20;;;5.80;;
13560;SDS011;6852;51.686;5.314;2022-11-12T10:58:23;9.93;;;6.47;;
13560;SDS011;6852;51.686;5.314;2022-11-12T11:03:28;9.53;;;6.20;;
13560;SDS011;6852;51.686;5.314;2022-11-12T11:06:33;8.47;;;5.60;;
13560;SDS011;6852;51.686;5.314;2022-11-12T11:08:53;6.73;;;5.63;;
13560;SDS011;6852;51.686;5.314;2022-11-12T11:11:49;9.53;;;6.03;;
13560;SDS011;6852;51.686;5.314;2022-11-12T11:14:38;6.40;;;5.73;;
13560;SDS011;6852;51.686;5.314;2022-11-12T11:17:05;10.43;;;5.53;;
13560;SDS011;6852;51.686;5.314;2022-11-12T11:19:43;8.23;;;5.83;;
13560;SDS011;6852;51.686;5.314;2022-11-12T11:22:19;8.37;;;6.53;;
13560;SDS011;6852;51.686;5.314;2022-11-12T11:30:47;10.93;;;7.70;;
13560;SDS011;6852;51.686;5.314;2022-11-12T11:33:26;10.10;;;7.73;;
13560;SDS011;6852;51.686;5.314;2022-11-12T11:38:57;11.73;;;7.20;;
13560;SDS011;6852;51.686;5.314;2022-11-12T11:44:21;10.17;;;8.00;;
13560;SDS011;6852;51.686;5.314;2022-11-12T11:52:13;9.67;;;7.30;;
13560;SDS011;6852;51.686;5.314;2022-11-12T11:55:08;10.97;;;7.47;;
13560;SDS011;6852;51.686;5.314;2022-11-12T12:00:56;9.60;;;7.40;;
13560;SDS011;6852;51.686;5.314;2022-11-12T12:06:26;10.10;;;7.80;;
13560;SDS011;6852;51.686;5.314;2022-11-12T12:11:56;11.17;;;8.27;;
13560;SDS011;6852;51.686;5.314;2022-11-12T12:22:38;9.80;;;7.40;;
13560;SDS011;6852;51.686;5.314;2022-11-12T12:25:14;10.63;;;7.20;;
13560;SDS011;6852;51.686;5.314;2022-11-12T12:27:58;13.93;;;8.43;;
13560;SDS011;6852;51.686;5.314;2022-11-12T12:30:47;14.30;;;10.30;;
13560;SDS011;6852;51.686;5.314;2022-11-12T12:33:28;13.37;;;9.67;;
13560;SDS011;6852;51.686;5.314;2022-11-12T12:36:02;15.07;;;11.13;;
13560;SDS011;6852;51.686;5.314;2022-11-12T12:44:01;12.53;;;10.03;;
13560;SDS011;6852;51.686;5.314;2022-11-12T12:46:31;11.47;;;9.63;;
13560;SDS011;6852;51.686;5.314;2022-11-12T12:49:04;9.63;;;8.33;;
13560;SDS011;6852;51.686;5.314;2022-11-12T12:51:32;11.67;;;8.70;;
13560;SDS011;6852;51.686;5.314;2022-11-12T12:54:00;9.50;;;8.23;;
13560;SDS011;6852;51.686;5.314;2022-11-12T12:58:57;10.97;;;9.13;;
13560;SDS011;6852;51.686;5.314;2022-11-12T13:01:32;10.40;;;8.13;;
13560;SDS011;6852;51.686;5.314;2022-11-12T13:04:04;10.83;;;9.00;;
13560;SDS011;6852;51.686;5.314;2022-11-12T13:06:37;13.13;;;9.10;;
13560;SDS011;6852;51.686;5.314;2022-11-12T13:17:08;9.40;;;8.33;;
13560;SDS011;6852;51.686;5.314;2022-11-12T13:32:40;9.40;;;7.80;;
13560;SDS011;6852;51.686;5.314;2022-11-12T13:40:38;8.93;;;8.00;;
13560;SDS011;6852;51.686;5.314;2022-11-12T13:43:05;13.40;;;9.17;;
13560;SDS011;6852;51.686;5.314;2022-11-12T13:45:57;10.00;;;8.63;;
13560;SDS011;6852;51.686;5.314;2022-11-12T13:50:56;10.73;;;9.50;;
13560;SDS011;6852;51.686;5.314;2022-11-12T13:53:27;10.27;;;8.63;;
13560;SDS011;6852;51.686;5.314;2022-11-12T13:55:56;11.53;;;9.87;;
13560;SDS011;6852;51.686;5.314;2022-11-12T13:58:27;10.10;;;8.60;;
13560;SDS011;6852;51.686;5.314;2022-11-12T14:00:59;10.37;;;8.33;;
13560;SDS011;6852;51.686;5.314;2022-11-12T14:03:30;11.50;;;8.70;;
13560;SDS011;6852;51.686;5.314;2022-11-12T14:06:21;10.60;;;8.77;;
13560;SDS011;6852;51.686;5.314;2022-11-12T14:11:42;14.00;;;9.73;;
13560;SDS011;6852;51.686;5.314;2022-11-12T14:14:19;13.07;;;9.07;;
13560;SDS011;6852;51.686;5.314;2022-11-12T14:16:52;10.87;;;8.73;;
13560;SDS011;6852;51.686;5.314;2022-11-12T14:22:15;13.03;;;9.70;;
13560;SDS011;6852;51.686;5.314;2022-11-12T14:24:43;11.90;;;10.07;;
13560;SDS011;6852;51.686;5.314;2022-11-12T14:32:44;11.43;;;9.60;;
13560;SDS011;6852;51.686;5.314;2022-11-12T14:35:15;12.30;;;9.03;;
13560;SDS011;6852;51.686;5.314;2022-11-12T14:37:45;12.87;;;9.97;;
13560;SDS011;6852;51.686;5.314;2022-11-12T14:40:17;12.93;;;9.23;;
13560;SDS011;6852;51.686;5.314;2022-11-12T14:42:44;13.07;;;9.77;;
13560;SDS011;6852;51.686;5.314;2022-11-12T14:45:15;12.43;;;9.50;;
13560;SDS011;6852;51.686;5.314;2022-11-12T14:47:44;12.77;;;9.67;;
13560;SDS011;6852;51.686;5.314;2022-11-12T14:50:14;10.30;;;9.10;;
13560;SDS011;6852;51.686;5.314;2022-11-12T14:53:02;12.87;;;9.73;;
13560;SDS011;6852;51.686;5.314;2022-11-12T14:55:34;15.37;;;11.17;;
13560;SDS011;6852;51.686;5.314;2022-11-12T14:58:02;14.80;;;10.67;;
13560;SDS011;6852;51.686;5.314;2022-11-12T15:02:58;15.57;;;11.13;;
13560;SDS011;6852;51.686;5.314;2022-11-12T15:05:27;15.10;;;11.53;;
13560;SDS011;6852;51.686;5.314;2022-11-12T15:08:01;15.63;;;11.67;;
13560;SDS011;6852;51.686;5.314;2022-11-12T15:13:08;14.33;;;11.10;;
13560;SDS011;6852;51.686;5.314;2022-11-12T15:15:38;17.70;;;12.00;;
13560;SDS011;6852;51.686;5.314;2022-11-12T15:18:19;16.27;;;10.73;;
13560;SDS011;6852;51.686;5.314;2022-11-12T15:23:48;13.87;;;11.73;;
13560;SDS011;6852;51.686;5.314;2022-11-12T15:26:35;14.10;;;11.30;;
13560;SDS011;6852;51.686;5.314;2022-11-12T15:31:55;15.37;;;11.40;;
13560;SDS011;6852;51.686;5.314;2022-11-12T15:39:51;17.97;;;12.63;;
13560;SDS011;6852;51.686;5.314;2022-11-12T15:42:32;16.60;;;11.57;;
13560;SDS011;6852;51.686;5.314;2022-11-12T15:45:08;17.40;;;11.17;;
13560;SDS011;6852;51.686;5.314;2022-11-12T15:47:35;18.30;;;11.20;;
13560;SDS011;6852;51.686;5.314;2022-11-12T15:50:07;18.70;;;11.87;;
13560;SDS011;6852;51.686;5.314;2022-11-12T15:52:43;15.20;;;11.10;;
13560;SDS011;6852;51.686;5.314;2022-11-12T15:55:11;17.47;;;10.90;;
13560;SDS011;6852;51.686;5.314;2022-11-12T15:57:42;18.43;;;11.30;;
13560;SDS011;6852;51.686;5.314;2022-11-12T16:02:45;13.37;;;10.87;;
13560;SDS011;6852;51.686;5.314;2022-11-12T16:05:17;13.90;;;11.37;;
13560;SDS011;6852;51.686;5.314;2022-11-12T16:07:44;15.60;;;12.07;;
13560;SDS011;6852;51.686;5.314;2022-11-12T16:10:12;13.67;;;10.67;;
13560;SDS011;6852;51.686;5.314;2022-11-12T16:12:40;16.77;;;11.47;;
13560;SDS011;6852;51.686;5.314;2022-11-12T16:15:11;15.73;;;11.67;;
13560;SDS011;6852;51.686;5.314;2022-11-12T16:17:40;17.23;;;12.67;;
13560;SDS011;6852;51.686;5.314;2022-11-12T16:20:14;14.60;;;11.87;;
13560;SDS011;6852;51.686;5.314;2022-11-12T16:22:43;19.07;;;12.40;;
13560;SDS011;6852;51.686;5.314;2022-11-12T16:25:10;15.00;;;11.33;;
13560;SDS011;6852;51.686;5.314;2022-11-12T16:27:37;14.37;;;11.87;;
13560;SDS011;6852;51.686;5.314;2022-11-12T16:30:05;15.87;;;11.47;;
13560;SDS011;6852;51.686;5.314;2022-11-12T16:32:39;16.20;;;11.80;;
13560;SDS011;6852;51.686;5.314;2022-11-12T16:35:06;14.37;;;11.30;;
13560;SDS011;6852;51.686;5.314;2022-11-12T16:37:33;16.30;;;12.30;;
13560;SDS011;6852;51.686;5.314;2022-11-12T16:40:08;14.80;;;12.03;;
13560;SDS011;6852;51.686;5.314;2022-11-12T16:42:39;19.47;;;12.87;;
13560;SDS011;6852;51.686;5.314;2022-11-12T16:45:14;16.87;;;12.73;;
13560;SDS011;6852;51.686;5.314;2022-11-12T16:47:43;17.90;;;12.97;;
13560;SDS011;6852;51.686;5.314;2022-11-12T16:50:16;15.87;;;12.47;;
13560;SDS011;6852;51.686;5.314;2022-11-12T16:52:46;17.67;;;12.97;;
13560;SDS011;6852;51.686;5.314;2022-11-12T16:55:14;17.07;;;14.07;;
13560;SDS011;6852;51.686;5.314;2022-11-12T16:57:41;15.00;;;12.67;;
13560;SDS011;6852;51.686;5.314;2022-11-12T17:00:12;20.40;;;12.60;;
13560;SDS011;6852;51.686;5.314;2022-11-12T17:02:40;19.17;;;14.00;;
13560;SDS011;6852;51.686;5.314;2022-11-12T17:05:13;16.40;;;13.10;;
13560;SDS011;6852;51.686;5.314;2022-11-12T17:07:40;16.83;;;13.90;;
13560;SDS011;6852;51.686;5.314;2022-11-12T17:10:07;19.00;;;13.73;;
13560;SDS011;6852;51.686;5.314;2022-11-12T17:12:34;16.80;;;13.10;;
13560;SDS011;6852;51.686;5.314;2022-11-12T17:15:01;21.07;;;14.70;;
13560;SDS011;6852;51.686;5.314;2022-11-12T17:17:27;16.20;;;13.63;;
13560;SDS011;6852;51.686;5.314;2022-11-12T17:19:54;15.47;;;13.73;;
13560;SDS011;6852;51.686;5.314;2022-11-12T17:22:21;22.23;;;14.17;;